sensor_id;sensor_type;location;lat;lon;timestamp;P1;durP1;ratioP1;P2;durP2;ratioP2
27899;SDS011;15243;50.726;7.080;2023-04-15T04:52:28;8.20;;;3.42;;
27899;SDS011;15243;50.726;7.080;2023-04-15T04:54:55;4.75;;;2.63;;
27899;SDS011;15243;50.726;7.080;2023-04-15T04:57:22;14.70;;;3.67;;
27899;SDS011;15243;50.726;7.080;2023-04-15T04:59:50;9.07;;;3.42;;
27899;SDS011;15243;50.726;7.080;2023-04-15T05:02:18;10.18;;;3.20;;
27899;SDS011;15243;50.726;7.080;2023-04-15T05:04:45;8.68;;;3.22;;
27899;SDS011;15243;50.726;7.080;2023-04-15T05:07:12;7.38;;;3.05;;
27899;SDS011;15243;50.726;7.080;2023-04-15T05:09:38;9.90;;;3.40;;
27899;SDS011;15243;50.726;7.080;2023-04-15T05:12:06;9.02;;;3.10;;
27899;SDS011;15243;50.726;7.080;2023-04-15T05:14:34;9.50;;;3.15;;
27899;SDS011;15243;50.726;7.080;2023-04-15T05:17:01;8.32;;;3.58;;
27899;SDS011;15243;50.726;7.080;2023-04-15T05:19:28;9.35;;;3.40;;
27899;SDS011;15243;50.726;7.080;2023-04-15T05:21:56;8.20;;;3.05;;
27899;SDS011;15243;50.726;7.080;2023-04-15T05:24:26;5.95;;;3.55;;
27899;SDS011;15243;50.726;7.080;2023-04-15T05:29:37;10.38;;;3.38;;
27899;SDS011;15243;50.726;7.080;2023-04-15T05:32:08;9.95;;;3.45;;
27899;SDS011;15243;50.726;7.080;2023-04-15T05:34:37;6.00;;;3.00;;
27899;SDS011;15243;50.726;7.080;2023-04-15T05:37:04;7.75;;;3.42;;
27899;SDS011;15243;50.726;7.080;2023-04-15T05:39:31;5.65;;;3.20;;
27899;SDS011;15243;50.726;7.080;2023-04-15T05:41:58;9.02;;;3.45;;
27899;SDS011;15243;50.726;7.080;2023-04-15T05:44:25;6.78;;;2.83;;
27899;SDS011;15243;50.726;7.080;2023-04-15T05:46:53;6.72;;;3.20;;
27899;SDS011;15243;50.726;7.080;2023-04-15T05:49:20;9.18;;;4.40;;
27899;SDS011;15243;50.726;7.080;2023-04-15T05:51:47;9.15;;;3.53;;
27899;SDS011;15243;50.726;7.080;2023-04-15T05:54:14;8.20;;;3.95;;
27899;SDS011;15243;50.726;7.080;2023-04-15T05:56:43;8.52;;;3.75;;
27899;SDS011;15243;50.726;7.080;2023-04-15T05:59:11;10.82;;;3.30;;
27899;SDS011;15243;50.726;7.080;2023-04-15T06:01:38;14.27;;;4.32;;
27899;SDS011;15243;50.726;7.080;2023-04-15T06:04:05;10.70;;;3.78;;
27899;SDS011;15243;50.726;7.080;2023-04-15T06:06:32;7.53;;;3.85;;
27899;SDS011;15243;50.726;7.080;2023-04-15T06:09:02;8.55;;;3.45;;
27899;SDS011;15243;50.726;7.080;2023-04-15T06:11:29;10.30;;;3.65;;
27899;SDS011;15243;50.726;7.080;2023-04-15T06:13:56;7.55;;;3.10;;
27899;SDS011;15243;50.726;7.080;2023-04-15T06:16:23;6.95;;;3.55;;
27899;SDS011;15243;50.726;7.080;2023-04-15T06:18:50;9.20;;;3.42;;
27899;SDS011;15243;50.726;7.080;2023-04-15T06:21:17;7.57;;;3.60;;
27899;SDS011;15243;50.726;7.080;2023-04-15T06:23:44;9.95;;;4.22;;
27899;SDS011;15243;50.726;7.080;2023-04-15T06:26:11;10.68;;;3.50;;
27899;SDS011;15243;50.726;7.080;2023-04-15T06:28:38;12.95;;;4.38;;
27899;SDS011;15243;50.726;7.080;2023-04-15T06:31:05;12.73;;;4.15;;
27899;SDS011;15243;50.726;7.080;2023-04-15T06:33:32;10.88;;;4.47;;
27899;SDS011;15243;50.726;7.080;2023-04-15T06:36:00;10.93;;;4.68;;
27899;SDS011;15243;50.726;7.080;2023-04-15T06:38:27;10.52;;;4.50;;
27899;SDS011;15243;50.726;7.080;2023-04-15T06:40:54;12.85;;;4.40;;
27899;SDS011;15243;50.726;7.080;2023-04-15T06:43:21;13.93;;;4.53;;
27899;SDS011;15243;50.726;7.080;2023-04-15T06:45:48;11.30;;;4.90;;
27899;SDS011;15243;50.726;7.080;2023-04-15T06:48:16;11.82;;;5.35;;
27899;SDS011;15243;50.726;7.080;2023-04-15T06:50:43;9.05;;;4.55;;
27899;SDS011;15243;50.726;7.080;2023-04-15T06:53:10;14.32;;;4.97;;
27899;SDS011;15243;50.726;7.080;2023-04-15T06:55:39;10.82;;;5.00;;
27899;SDS011;15243;50.726;7.080;2023-04-15T06:58:06;12.93;;;4.82;;
27899;SDS011;15243;50.726;7.080;2023-04-15T07:00:35;11.45;;;4.82;;
27899;SDS011;15243;50.726;7.080;2023-04-15T07:03:04;10.77;;;5.03;;
27899;SDS011;15243;50.726;7.080;2023-04-15T07:05:31;11.32;;;4.93;;
27899;SDS011;15243;50.726;7.080;2023-04-15T07:08:02;10.15;;;5.05;;
27899;SDS011;15243;50.726;7.080;2023-04-15T07:10:30;13.82;;;5.10;;
27899;SDS011;15243;50.726;7.080;2023-04-15T07:12:58;12.65;;;4.22;;
27899;SDS011;15243;50.726;7.080;2023-04-15T07:15:25;11.05;;;4.82;;
27899;SDS011;15243;50.726;7.080;2023-04-15T07:17:54;13.07;;;5.40;;
27899;SDS011;15243;50.726;7.080;2023-04-15T07:20:22;13.50;;;5.70;;
27899;SDS011;15243;50.726;7.080;2023-04-15T07:22:50;14.27;;;5.05;;
27899;SDS011;15243;50.726;7.080;2023-04-15T07:25:17;10.60;;;5.03;;
27899;SDS011;15243;50.726;7.080;2023-04-15T07:27:44;12.35;;;5.85;;
27899;SDS011;15243;50.726;7.080;2023-04-15T07:30:19;10.45;;;5.88;;
27899;SDS011;15243;50.726;7.080;2023-04-15T07:35:15;11.32;;;6.22;;
27899;SDS011;15243;50.726;7.080;2023-04-15T07:37:46;15.25;;;5.97;;
27899;SDS011;15243;50.726;7.080;2023-04-15T07:40:13;11.15;;;5.70;;
27899;SDS011;15243;50.726;7.080;2023-04-15T07:42:43;12.20;;;5.78;;
27899;SDS011;15243;50.726;7.080;2023-04-15T07:45:10;13.80;;;6.25;;
27899;SDS011;15243;50.726;7.080;2023-04-15T07:47:38;14.70;;;5.57;;
27899;SDS011;15243;50.726;7.080;2023-04-15T07:50:09;15.57;;;6.15;;
27899;SDS011;15243;50.726;7.080;2023-04-15T07:52:55;12.45;;;6.40;;
27899;SDS011;15243;50.726;7.080;2023-04-15T07:55:36;10.48;;;5.47;;
27899;SDS011;15243;50.726;7.080;2023-04-15T07:58:05;11.48;;;5.53;;
27899;SDS011;15243;50.726;7.080;2023-04-15T08:00:32;16.60;;;6.78;;
27899;SDS011;15243;50.726;7.080;2023-04-15T08:03:03;13.80;;;6.45;;
27899;SDS011;15243;50.726;7.080;2023-04-15T08:05:36;9.63;;;5.47;;
27899;SDS011;15243;50.726;7.080;2023-04-15T08:08:07;15.50;;;6.43;;
27899;SDS011;15243;50.726;7.080;2023-04-15T08:10:34;11.75;;;6.38;;
27899;SDS011;15243;50.726;7.080;2023-04-15T08:13:03;20.20;;;9.90;;
27899;SDS011;15243;50.726;7.080;2023-04-15T08:15:31;12.13;;;7.55;;
27899;SDS011;15243;50.726;7.080;2023-04-15T08:17:58;12.43;;;6.80;;
27899;SDS011;15243;50.726;7.080;2023-04-15T08:20:26;14.38;;;7.57;;
27899;SDS011;15243;50.726;7.080;2023-04-15T08:22:55;12.55;;;6.50;;
27899;SDS011;15243;50.726;7.080;2023-04-15T08:25:24;10.35;;;6.45;;
27899;SDS011;15243;50.726;7.080;2023-04-15T08:28:03;13.20;;;6.75;;
27899;SDS011;15243;50.726;7.080;2023-04-15T08:30:32;11.98;;;7.35;;
27899;SDS011;15243;50.726;7.080;2023-04-15T08:33:16;11.80;;;6.38;;
27899;SDS011;15243;50.726;7.080;2023-04-15T08:35:45;13.27;;;6.63;;
27899;SDS011;15243;50.726;7.080;2023-04-15T08:38:13;18.33;;;7.90;;
27899;SDS011;15243;50.726;7.080;2023-04-15T08:40:44;13.55;;;6.93;;
27899;SDS011;15243;50.726;7.080;2023-04-15T08:43:14;16.90;;;7.72;;
27899;SDS011;15243;50.726;7.080;2023-04-15T08:45:49;12.93;;;6.75;;
27899;SDS011;15243;50.726;7.080;2023-04-15T08:48:17;20.92;;;8.38;;
27899;SDS011;15243;50.726;7.080;2023-04-15T08:50:45;11.27;;;7.07;;
27899;SDS011;15243;50.726;7.080;2023-04-15T08:53:13;13.07;;;7.72;;
27899;SDS011;15243;50.726;7.080;2023-04-15T08:55:44;15.07;;;7.55;;
27899;SDS011;15243;50.726;7.080;2023-04-15T08:58:16;15.55;;;8.20;;
27899;SDS011;15243;50.726;7.080;2023-04-15T09:00:51;13.07;;;7.10;;
27899;SDS011;15243;50.726;7.080;2023-04-15T09:03:19;14.20;;;7.13;;
27899;SDS011;15243;50.726;7.080;2023-04-15T09:06:04;11.20;;;6.72;;
27899;SDS011;15243;50.726;7.080;2023-04-15T09:08:32;13.00;;;6.75;;
27899;SDS011;15243;50.726;7.080;2023-04-15T09:11:04;13.63;;;7.32;;
27899;SDS011;15243;50.726;7.080;2023-04-15T09:13:56;12.68;;;7.63;;
27899;SDS011;15243;50.726;7.080;2023-04-15T09:16:26;12.23;;;7.03;;
27899;SDS011;15243;50.726;7.080;2023-04-15T09:19:21;14.02;;;6.65;;
27899;SDS011;15243;50.726;7.080;2023-04-15T09:21:53;14.60;;;6.80;;
27899;SDS011;15243;50.726;7.080;2023-04-15T09:24:37;11.43;;;6.03;;
27899;SDS011;15243;50.726;7.080;2023-04-15T09:27:06;5.53;;;2.63;;
27899;SDS011;15243;50.726;7.080;2023-04-15T09:29:39;10.43;;;4.07;;
27899;SDS011;15243;50.726;7.080;2023-04-15T09:32:09;6.50;;;2.53;;
27899;SDS011;15243;50.726;7.080;2023-04-15T09:34:41;13.37;;;5.43;;
27899;SDS011;15243;50.726;7.080;2023-04-15T09:37:10;5.43;;;2.20;;
27899;SDS011;15243;50.726;7.080;2023-04-15T09:39:57;3.28;;;1.50;;
27899;SDS011;15243;50.726;7.080;2023-04-15T09:42:24;6.80;;;2.13;;
27899;SDS011;15243;50.726;7.080;2023-04-15T09:44:53;4.38;;;1.67;;
27899;SDS011;15243;50.726;7.080;2023-04-15T09:49:56;3.90;;;1.85;;
27899;SDS011;15243;50.726;7.080;2023-04-15T09:52:23;3.40;;;1.88;;
27899;SDS011;15243;50.726;7.080;2023-04-15T09:54:52;2.65;;;1.63;;
27899;SDS011;15243;50.726;7.080;2023-04-15T09:57:23;2.95;;;1.70;;
27899;SDS011;15243;50.726;7.080;2023-04-15T09:59:50;3.05;;;1.90;;
27899;SDS011;15243;50.726;7.080;2023-04-15T10:02:18;3.08;;;1.98;;
27899;SDS011;15243;50.726;7.080;2023-04-15T10:04:47;3.50;;;1.98;;
27899;SDS011;15243;50.726;7.080;2023-04-15T10:07:14;5.63;;;2.45;;
27899;SDS011;15243;50.726;7.080;2023-04-15T10:09:49;4.10;;;2.05;;
27899;SDS011;15243;50.726;7.080;2023-04-15T10:12:18;2.47;;;1.63;;
27899;SDS011;15243;50.726;7.080;2023-04-15T10:14:52;2.88;;;1.58;;
27899;SDS011;15243;50.726;7.080;2023-04-15T10:17:26;2.67;;;1.52;;
27899;SDS011;15243;50.726;7.080;2023-04-15T10:19:56;2.00;;;1.80;;
27899;SDS011;15243;50.726;7.080;2023-04-15T10:22:29;2.08;;;1.38;;
27899;SDS011;15243;50.726;7.080;2023-04-15T10:24:57;3.33;;;1.83;;
27899;SDS011;15243;50.726;7.080;2023-04-15T10:27:25;3.08;;;1.50;;
27899;SDS011;15243;50.726;7.080;2023-04-15T10:30:17;3.60;;;1.92;;
27899;SDS011;15243;50.726;7.080;2023-04-15T10:32:44;5.63;;;1.65;;
27899;SDS011;15243;50.726;7.080;2023-04-15T10:35:29;1.70;;;1.40;;
27899;SDS011;15243;50.726;7.080;2023-04-15T10:38:00;2.90;;;2.00;;
27899;SDS011;15243;50.726;7.080;2023-04-15T10:40:30;2.33;;;1.92;;
27899;SDS011;15243;50.726;7.080;2023-04-15T10:43:03;8.57;;;2.15;;
27899;SDS011;15243;50.726;7.080;2023-04-15T10:45:33;5.80;;;2.50;;
27899;SDS011;15243;50.726;7.080;2023-04-15T10:48:04;4.00;;;2.78;;
27899;SDS011;15243;50.726;7.080;2023-04-15T10:50:35;3.97;;;1.90;;
27899;SDS011;15243;50.726;7.080;2023-04-15T10:53:03;2.20;;;1.67;;
27899;SDS011;15243;50.726;7.080;2023-04-15T10:55:32;3.72;;;1.80;;
27899;SDS011;15243;50.726;7.080;2023-04-15T10:58:00;3.70;;;2.00;;
27899;SDS011;15243;50.726;7.080;2023-04-15T11:00:30;2.75;;;1.83;;
27899;SDS011;15243;50.726;7.080;2023-04-15T11:03:05;3.83;;;2.13;;
27899;SDS011;15243;50.726;7.080;2023-04-15T11:05:52;2.10;;;1.70;;
27899;SDS011;15243;50.726;7.080;2023-04-15T11:08:52;4.57;;;3.08;;
27899;SDS011;15243;50.726;7.080;2023-04-15T11:11:21;3.35;;;2.63;;
27899;SDS011;15243;50.726;7.080;2023-04-15T11:13:49;4.88;;;3.10;;
27899;SDS011;15243;50.726;7.080;2023-04-15T11:16:17;5.63;;;3.35;;
27899;SDS011;15243;50.726;7.080;2023-04-15T11:19:03;5.55;;;3.40;;
27899;SDS011;15243;50.726;7.080;2023-04-15T11:21:30;5.15;;;3.50;;
27899;SDS011;15243;50.726;7.080;2023-04-15T11:23:59;4.70;;;3.53;;
27899;SDS011;15243;50.726;7.080;2023-04-15T11:26:28;6.38;;;3.58;;
27899;SDS011;15243;50.726;7.080;2023-04-15T11:28:55;8.20;;;4.65;;
27899;SDS011;15243;50.726;7.080;2023-04-15T11:31:22;4.32;;;3.47;;
27899;SDS011;15243;50.726;7.080;2023-04-15T11:36:24;5.72;;;3.60;;
27899;SDS011;15243;50.726;7.080;2023-04-15T11:39:05;3.53;;;3.00;;
27899;SDS011;15243;50.726;7.080;2023-04-15T11:41:33;5.00;;;2.80;;
27899;SDS011;15243;50.726;7.080;2023-04-15T11:44:01;13.63;;;6.55;;
27899;SDS011;15243;50.726;7.080;2023-04-15T11:46:29;2.72;;;2.10;;
27899;SDS011;15243;50.726;7.080;2023-04-15T11:48:57;8.10;;;3.97;;
27899;SDS011;15243;50.726;7.080;2023-04-15T11:51:25;2.97;;;2.30;;
27899;SDS011;15243;50.726;7.080;2023-04-15T11:53:57;5.75;;;3.35;;
27899;SDS011;15243;50.726;7.080;2023-04-15T11:56:25;4.03;;;2.92;;
27899;SDS011;15243;50.726;7.080;2023-04-15T11:59:00;4.45;;;3.58;;
27899;SDS011;15243;50.726;7.080;2023-04-15T12:01:35;3.50;;;2.45;;
27899;SDS011;15243;50.726;7.080;2023-04-15T12:04:10;7.95;;;4.60;;
27899;SDS011;15243;50.726;7.080;2023-04-15T12:06:50;4.13;;;3.17;;
27899;SDS011;15243;50.726;7.080;2023-04-15T12:09:26;4.78;;;3.33;;
27899;SDS011;15243;50.726;7.080;2023-04-15T12:11:57;5.45;;;3.60;;
27899;SDS011;15243;50.726;7.080;2023-04-15T12:14:28;4.40;;;3.28;;
27899;SDS011;15243;50.726;7.080;2023-04-15T12:17:05;4.80;;;2.70;;
27899;SDS011;15243;50.726;7.080;2023-04-15T12:19:36;8.15;;;4.05;;
27899;SDS011;15243;50.726;7.080;2023-04-15T12:22:05;4.50;;;2.95;;
27899;SDS011;15243;50.726;7.080;2023-04-15T12:24:35;4.60;;;3.22;;
27899;SDS011;15243;50.726;7.080;2023-04-15T12:27:07;5.25;;;2.72;;
27899;SDS011;15243;50.726;7.080;2023-04-15T12:29:38;4.13;;;2.30;;
27899;SDS011;15243;50.726;7.080;2023-04-15T12:32:06;2.60;;;2.40;;
27899;SDS011;15243;50.726;7.080;2023-04-15T12:35:18;1.98;;;1.67;;
27899;SDS011;15243;50.726;7.080;2023-04-15T12:37:46;3.88;;;2.60;;
27899;SDS011;15243;50.726;7.080;2023-04-15T12:40:13;2.63;;;1.98;;
27899;SDS011;15243;50.726;7.080;2023-04-15T12:42:41;2.88;;;2.40;;
27899;SDS011;15243;50.726;7.080;2023-04-15T12:45:08;3.33;;;2.83;;
27899;SDS011;15243;50.726;7.080;2023-04-15T12:47:35;3.80;;;2.70;;
27899;SDS011;15243;50.726;7.080;2023-04-15T12:50:02;4.13;;;3.17;;
27899;SDS011;15243;50.726;7.080;2023-04-15T12:52:29;4.72;;;3.47;;
27899;SDS011;15243;50.726;7.080;2023-04-15T12:54:56;5.07;;;3.35;;
27899;SDS011;15243;50.726;7.080;2023-04-15T12:57:23;6.78;;;4.45;;
27899;SDS011;15243;50.726;7.080;2023-04-15T12:59:50;9.07;;;5.25;;
27899;SDS011;15243;50.726;7.080;2023-04-15T13:02:17;6.45;;;4.13;;
27899;SDS011;15243;50.726;7.080;2023-04-15T13:04:46;5.07;;;4.57;;
27899;SDS011;15243;50.726;7.080;2023-04-15T13:07:13;6.00;;;4.75;;
27899;SDS011;15243;50.726;7.080;2023-04-15T13:09:41;5.60;;;5.07;;
27899;SDS011;15243;50.726;7.080;2023-04-15T13:12:10;5.00;;;4.57;;
27899;SDS011;15243;50.726;7.080;2023-04-15T13:14:39;5.35;;;4.68;;
27899;SDS011;15243;50.726;7.080;2023-04-15T13:17:14;6.00;;;4.75;;
27899;SDS011;15243;50.726;7.080;2023-04-15T13:19:44;6.00;;;5.03;;
27899;SDS011;15243;50.726;7.080;2023-04-15T13:22:11;9.15;;;6.82;;
27899;SDS011;15243;50.726;7.080;2023-04-15T13:24:40;6.10;;;5.30;;
27899;SDS011;15243;50.726;7.080;2023-04-15T13:27:07;6.10;;;5.35;;
27899;SDS011;15243;50.726;7.080;2023-04-15T13:29:34;9.65;;;6.43;;
27899;SDS011;15243;50.726;7.080;2023-04-15T13:32:01;7.22;;;5.43;;
27899;SDS011;15243;50.726;7.080;2023-04-15T13:34:28;6.88;;;5.13;;
27899;SDS011;15243;50.726;7.080;2023-04-15T13:36:55;5.18;;;4.68;;
27899;SDS011;15243;50.726;7.080;2023-04-15T13:39:23;7.50;;;5.30;;
27899;SDS011;15243;50.726;7.080;2023-04-15T13:41:50;6.57;;;4.97;;
27899;SDS011;15243;50.726;7.080;2023-04-15T13:44:17;6.70;;;4.90;;
27899;SDS011;15243;50.726;7.080;2023-04-15T13:46:47;4.80;;;4.30;;
27899;SDS011;15243;50.726;7.080;2023-04-15T13:49:13;4.40;;;4.00;;
27899;SDS011;15243;50.726;7.080;2023-04-15T13:51:41;4.70;;;3.90;;
27899;SDS011;15243;50.726;7.080;2023-04-15T13:54:08;5.70;;;4.65;;
27899;SDS011;15243;50.726;7.080;2023-04-15T13:56:35;6.43;;;5.80;;
27899;SDS011;15243;50.726;7.080;2023-04-15T13:59:03;8.40;;;6.07;;
27899;SDS011;15243;50.726;7.080;2023-04-15T14:01:32;7.72;;;5.57;;
27899;SDS011;15243;50.726;7.080;2023-04-15T14:04:00;8.13;;;5.97;;
27899;SDS011;15243;50.726;7.080;2023-04-15T14:06:27;9.73;;;6.65;;
27899;SDS011;15243;50.726;7.080;2023-04-15T14:08:56;12.70;;;7.95;;
27899;SDS011;15243;50.726;7.080;2023-04-15T14:11:24;7.80;;;6.55;;
27899;SDS011;15243;50.726;7.080;2023-04-15T14:13:51;9.05;;;8.15;;
27899;SDS011;15243;50.726;7.080;2023-04-15T14:16:18;11.68;;;8.98;;
27899;SDS011;15243;50.726;7.080;2023-04-15T14:18:46;11.40;;;8.48;;
27899;SDS011;15243;50.726;7.080;2023-04-15T14:21:15;11.30;;;9.00;;
27899;SDS011;15243;50.726;7.080;2023-04-15T14:23:42;10.30;;;8.98;;
27899;SDS011;15243;50.726;7.080;2023-04-15T14:26:09;16.98;;;9.23;;
27899;SDS011;15243;50.726;7.080;2023-04-15T14:28:37;18.63;;;11.95;;
27899;SDS011;15243;50.726;7.080;2023-04-15T14:31:04;11.52;;;9.25;;
27899;SDS011;15243;50.726;7.080;2023-04-15T14:33:32;8.55;;;7.63;;
27899;SDS011;15243;50.726;7.080;2023-04-15T14:35:59;9.55;;;7.63;;
27899;SDS011;15243;50.726;7.080;2023-04-15T14:38:26;9.38;;;6.72;;
27899;SDS011;15243;50.726;7.080;2023-04-15T14:40:53;8.40;;;6.40;;
27899;SDS011;15243;50.726;7.080;2023-04-15T14:43:20;8.95;;;5.43;;
27899;SDS011;15243;50.726;7.080;2023-04-15T14:45:49;11.65;;;6.70;;
27899;SDS011;15243;50.726;7.080;2023-04-15T14:48:17;8.00;;;5.25;;
27899;SDS011;15243;50.726;7.080;2023-04-15T14:50:44;9.27;;;5.28;;
27899;SDS011;15243;50.726;7.080;2023-04-15T14:53:13;7.63;;;5.72;;
27899;SDS011;15243;50.726;7.080;2023-04-15T14:55:42;10.82;;;7.95;;
27899;SDS011;15243;50.726;7.080;2023-04-15T14:58:11;7.63;;;6.40;;
27899;SDS011;15243;50.726;7.080;2023-04-15T15:00:38;7.82;;;5.22;;
27899;SDS011;15243;50.726;7.080;2023-04-15T15:03:08;6.50;;;4.78;;
27899;SDS011;15243;50.726;7.080;2023-04-15T15:05:43;7.55;;;4.97;;
27899;SDS011;15243;50.726;7.080;2023-04-15T15:08:18;7.00;;;5.00;;
27899;SDS011;15243;50.726;7.080;2023-04-15T15:10:45;6.50;;;5.30;;
27899;SDS011;15243;50.726;7.080;2023-04-15T15:13:15;10.13;;;5.60;;
27899;SDS011;15243;50.726;7.080;2023-04-15T15:15:42;7.47;;;5.10;;
27899;SDS011;15243;50.726;7.080;2023-04-15T15:18:12;7.70;;;5.72;;
27899;SDS011;15243;50.726;7.080;2023-04-15T15:20:39;10.18;;;6.82;;
27899;SDS011;15243;50.726;7.080;2023-04-15T15:23:06;12.60;;;10.57;;
27899;SDS011;15243;50.726;7.080;2023-04-15T15:25:36;15.98;;;10.57;;
27899;SDS011;15243;50.726;7.080;2023-04-15T15:28:04;16.20;;;12.50;;
27899;SDS011;15243;50.726;7.080;2023-04-15T15:30:31;17.58;;;14.25;;
27899;SDS011;15243;50.726;7.080;2023-04-15T15:32:59;18.52;;;15.30;;
27899;SDS011;15243;50.726;7.080;2023-04-15T15:35:26;18.90;;;15.40;;
27899;SDS011;15243;50.726;7.080;2023-04-15T15:37:53;18.95;;;15.05;;
27899;SDS011;15243;50.726;7.080;2023-04-15T15:40:21;22.17;;;15.80;;
27899;SDS011;15243;50.726;7.080;2023-04-15T15:42:48;20.20;;;15.15;;
27899;SDS011;15243;50.726;7.080;2023-04-15T15:45:16;20.73;;;16.33;;
27899;SDS011;15243;50.726;7.080;2023-04-15T15:47:43;19.90;;;14.60;;
27899;SDS011;15243;50.726;7.080;2023-04-15T15:50:11;18.15;;;13.18;;
27899;SDS011;15243;50.726;7.080;2023-04-15T15:52:39;18.92;;;13.02;;
27899;SDS011;15243;50.726;7.080;2023-04-15T15:55:06;17.33;;;12.63;;
27899;SDS011;15243;50.726;7.080;2023-04-15T15:57:33;21.80;;;14.07;;
27899;SDS011;15243;50.726;7.080;2023-04-15T16:00:00;18.65;;;14.68;;
27899;SDS011;15243;50.726;7.080;2023-04-15T16:02:31;24.30;;;15.23;;
27899;SDS011;15243;50.726;7.080;2023-04-15T16:05:18;21.42;;;15.32;;
27899;SDS011;15243;50.726;7.080;2023-04-15T16:07:45;24.88;;;16.50;;
27899;SDS011;15243;50.726;7.080;2023-04-15T16:10:12;22.90;;;17.20;;
27899;SDS011;15243;50.726;7.080;2023-04-15T16:12:39;22.38;;;16.23;;
27899;SDS011;15243;50.726;7.080;2023-04-15T16:15:10;23.95;;;17.75;;
27899;SDS011;15243;50.726;7.080;2023-04-15T16:17:38;24.90;;;18.25;;
27899;SDS011;15243;50.726;7.080;2023-04-15T16:20:05;26.35;;;18.67;;
27899;SDS011;15243;50.726;7.080;2023-04-15T16:22:33;26.10;;;16.38;;
27899;SDS011;15243;50.726;7.080;2023-04-15T16:25:00;23.17;;;16.38;;
27899;SDS011;15243;50.726;7.080;2023-04-15T16:27:28;18.83;;;14.88;;
27899;SDS011;15243;50.726;7.080;2023-04-15T16:29:55;18.33;;;13.93;;
27899;SDS011;15243;50.726;7.080;2023-04-15T16:32:22;18.17;;;12.90;;
27899;SDS011;15243;50.726;7.080;2023-04-15T16:34:50;20.80;;;13.38;;
27899;SDS011;15243;50.726;7.080;2023-04-15T16:37:18;21.23;;;14.00;;
27899;SDS011;15243;50.726;7.080;2023-04-15T16:39:46;16.70;;;13.52;;
27899;SDS011;15243;50.726;7.080;2023-04-15T16:42:13;18.08;;;13.57;;
27899;SDS011;15243;50.726;7.080;2023-04-15T16:44:40;21.90;;;13.88;;
27899;SDS011;15243;50.726;7.080;2023-04-15T16:47:07;16.90;;;13.32;;
27899;SDS011;15243;50.726;7.080;2023-04-15T16:49:37;17.58;;;13.75;;
27899;SDS011;15243;50.726;7.080;2023-04-15T16:52:04;15.63;;;13.23;;
27899;SDS011;15243;50.726;7.080;2023-04-15T16:54:32;16.60;;;13.07;;
27899;SDS011;15243;50.726;7.080;2023-04-15T16:57:00;15.32;;;13.35;;
27899;SDS011;15243;50.726;7.080;2023-04-15T16:59:28;16.38;;;12.38;;
27899;SDS011;15243;50.726;7.080;2023-04-15T17:01:55;14.07;;;12.32;;
27899;SDS011;15243;50.726;7.080;2023-04-15T17:04:23;19.45;;;14.13;;
27899;SDS011;15243;50.726;7.080;2023-04-15T17:06:50;17.38;;;13.93;;
27899;SDS011;15243;50.726;7.080;2023-04-15T17:09:18;18.70;;;14.40;;
27899;SDS011;15243;50.726;7.080;2023-04-15T17:11:45;17.60;;;12.73;;
27899;SDS011;15243;50.726;7.080;2023-04-15T17:14:13;18.02;;;13.75;;
27899;SDS011;15243;50.726;7.080;2023-04-15T17:16:40;18.48;;;13.73;;
27899;SDS011;15243;50.726;7.080;2023-04-15T17:19:08;15.73;;;13.10;;
27899;SDS011;15243;50.726;7.080;2023-04-15T17:21:36;15.45;;;12.45;;
27899;SDS011;15243;50.726;7.080;2023-04-15T17:24:04;17.85;;;13.13;;
27899;SDS011;15243;50.726;7.080;2023-04-15T17:26:31;16.05;;;13.07;;
27899;SDS011;15243;50.726;7.080;2023-04-15T17:28:58;19.02;;;13.63;;
27899;SDS011;15243;50.726;7.080;2023-04-15T17:31:26;18.27;;;13.43;;
27899;SDS011;15243;50.726;7.080;2023-04-15T17:33:55;15.15;;;12.55;;
27899;SDS011;15243;50.726;7.080;2023-04-15T17:36:32;14.98;;;12.80;;
27899;SDS011;15243;50.726;7.080;2023-04-15T17:39:00;20.50;;;14.07;;
27899;SDS011;15243;50.726;7.080;2023-04-15T17:41:27;20.02;;;14.55;;
27899;SDS011;15243;50.726;7.080;2023-04-15T17:43:54;19.48;;;13.80;;
27899;SDS011;15243;50.726;7.080;2023-04-15T17:46:21;20.23;;;15.60;;
27899;SDS011;15243;50.726;7.080;2023-04-15T17:48:48;19.70;;;14.63;;
27899;SDS011;15243;50.726;7.080;2023-04-15T17:51:18;16.98;;;13.80;;
27899;SDS011;15243;50.726;7.080;2023-04-15T17:53:45;16.40;;;11.48;;
27899;SDS011;15243;50.726;7.080;2023-04-15T17:56:12;15.23;;;11.82;;
27899;SDS011;15243;50.726;7.080;2023-04-15T17:58:39;15.32;;;10.15;;
27899;SDS011;15243;50.726;7.080;2023-04-15T18:01:06;11.43;;;9.45;;
27899;SDS011;15243;50.726;7.080;2023-04-15T18:03:34;11.73;;;8.63;;
27899;SDS011;15243;50.726;7.080;2023-04-15T18:06:02;12.85;;;8.70;;
27899;SDS011;15243;50.726;7.080;2023-04-15T18:08:30;14.13;;;8.50;;
27899;SDS011;15243;50.726;7.080;2023-04-15T18:10:57;11.27;;;7.47;;
27899;SDS011;15243;50.726;7.080;2023-04-15T18:13:29;9.65;;;6.10;;
27899;SDS011;15243;50.726;7.080;2023-04-15T18:15:59;9.48;;;5.90;;
27899;SDS011;15243;50.726;7.080;2023-04-15T18:18:26;9.27;;;6.30;;
27899;SDS011;15243;50.726;7.080;2023-04-15T18:20:54;11.10;;;7.03;;
27899;SDS011;15243;50.726;7.080;2023-04-15T18:23:21;10.50;;;7.53;;
27899;SDS011;15243;50.726;7.080;2023-04-15T18:25:50;11.38;;;7.32;;
27899;SDS011;15243;50.726;7.080;2023-04-15T18:28:21;10.50;;;8.38;;
27899;SDS011;15243;50.726;7.080;2023-04-15T18:30:48;11.45;;;8.00;;
27899;SDS011;15243;50.726;7.080;2023-04-15T18:33:15;11.50;;;7.47;;
27899;SDS011;15243;50.726;7.080;2023-04-15T18:35:43;11.38;;;7.40;;
27899;SDS011;15243;50.726;7.080;2023-04-15T18:38:10;10.95;;;7.32;;
27899;SDS011;15243;50.726;7.080;2023-04-15T18:40:37;11.63;;;8.13;;
27899;SDS011;15243;50.726;7.080;2023-04-15T18:43:04;12.90;;;8.00;;
27899;SDS011;15243;50.726;7.080;2023-04-15T18:45:32;10.57;;;8.38;;
27899;SDS011;15243;50.726;7.080;2023-04-15T18:47:59;11.02;;;7.97;;
27899;SDS011;15243;50.726;7.080;2023-04-15T18:50:34;12.75;;;7.75;;
27899;SDS011;15243;50.726;7.080;2023-04-15T18:53:01;10.48;;;6.80;;
27899;SDS011;15243;50.726;7.080;2023-04-15T18:55:28;8.30;;;6.32;;
27899;SDS011;15243;50.726;7.080;2023-04-15T18:57:55;13.63;;;7.00;;
27899;SDS011;15243;50.726;7.080;2023-04-15T19:00:33;9.40;;;6.57;;
27899;SDS011;15243;50.726;7.080;2023-04-15T19:03:06;8.88;;;6.82;;
27899;SDS011;15243;50.726;7.080;2023-04-15T19:05:41;12.88;;;7.93;;
27899;SDS011;15243;50.726;7.080;2023-04-15T19:08:33;13.23;;;6.93;;
27899;SDS011;15243;50.726;7.080;2023-04-15T19:11:18;16.90;;;7.22;;
27899;SDS011;15243;50.726;7.080;2023-04-15T19:13:45;12.50;;;7.07;;
27899;SDS011;15243;50.726;7.080;2023-04-15T19:16:22;12.50;;;7.93;;
27899;SDS011;15243;50.726;7.080;2023-04-15T19:18:51;12.82;;;9.77;;
27899;SDS011;15243;50.726;7.080;2023-04-15T19:21:34;15.02;;;11.63;;
27899;SDS011;15243;50.726;7.080;2023-04-15T19:24:18;18.08;;;13.85;;
27899;SDS011;15243;50.726;7.080;2023-04-15T19:26:54;19.52;;;14.68;;
27899;SDS011;15243;50.726;7.080;2023-04-15T19:29:44;23.50;;;15.55;;
27899;SDS011;15243;50.726;7.080;2023-04-15T19:32:34;21.90;;;15.70;;
27899;SDS011;15243;50.726;7.080;2023-04-15T19:35:19;23.63;;;16.58;;
27899;SDS011;15243;50.726;7.080;2023-04-15T19:37:59;24.15;;;16.10;;
27899;SDS011;15243;50.726;7.080;2023-04-15T19:40:35;24.20;;;16.83;;
27899;SDS011;15243;50.726;7.080;2023-04-15T19:43:09;22.77;;;15.38;;
27899;SDS011;15243;50.726;7.080;2023-04-15T19:45:57;24.73;;;15.68;;
27899;SDS011;15243;50.726;7.080;2023-04-15T19:48:37;20.98;;;15.40;;
27899;SDS011;15243;50.726;7.080;2023-04-15T19:51:06;17.15;;;14.10;;
27899;SDS011;15243;50.726;7.080;2023-04-15T19:53:38;16.52;;;12.77;;
27899;SDS011;15243;50.726;7.080;2023-04-15T19:56:14;23.25;;;13.45;;